sensor_id;sensor_type;location;lat;lon;timestamp;temperature;humidity
28071;DHT22;15383;48.408;9.968;2022-08-19T00:01:42;21.60;85.40
28071;DHT22;15383;48.408;9.968;2022-08-19T00:04:10;21.60;85.40
28071;DHT22;15383;48.408;9.968;2022-08-19T00:06:38;21.60;85.40
28071;DHT22;15383;48.408;9.968;2022-08-19T00:09:06;21.60;85.50
28071;DHT22;15383;48.408;9.968;2022-08-19T00:11:33;21.60;85.50
28071;DHT22;15383;48.408;9.968;2022-08-19T00:14:00;21.60;85.50
28071;DHT22;15383;48.408;9.968;2022-08-19T00:16:26;21.60;85.50
28071;DHT22;15383;48.408;9.968;2022-08-19T00:18:52;21.60;85.50
28071;DHT22;15383;48.408;9.968;2022-08-19T00:21:18;21.60;85.50
28071;DHT22;15383;48.408;9.968;2022-08-19T00:23:44;21.50;85.40
28071;DHT22;15383;48.408;9.968;2022-08-19T00:26:10;21.60;85.60
28071;DHT22;15383;48.408;9.968;2022-08-19T00:28:36;21.50;85.50
28071;DHT22;15383;48.408;9.968;2022-08-19T00:31:04;21.60;85.50
28071;DHT22;15383;48.408;9.968;2022-08-19T00:33:31;21.50;85.50
28071;DHT22;15383;48.408;9.968;2022-08-19T00:36:00;21.60;85.60
28071;DHT22;15383;48.408;9.968;2022-08-19T00:38:26;21.50;85.60
28071;DHT22;15383;48.408;9.968;2022-08-19T00:40:52;21.50;85.60
28071;DHT22;15383;48.408;9.968;2022-08-19T00:43:23;21.50;85.60
28071;DHT22;15383;48.408;9.968;2022-08-19T00:45:49;21.50;85.60
28071;DHT22;15383;48.408;9.968;2022-08-19T00:48:16;21.50;85.60
28071;DHT22;15383;48.408;9.968;2022-08-19T00:50:43;21.50;85.60
28071;DHT22;15383;48.408;9.968;2022-08-19T00:53:11;21.50;85.60
28071;DHT22;15383;48.408;9.968;2022-08-19T00:55:37;21.50;85.60
28071;DHT22;15383;48.408;9.968;2022-08-19T00:58:08;21.50;85.60
28071;DHT22;15383;48.408;9.968;2022-08-19T01:00:36;21.50;85.60
28071;DHT22;15383;48.408;9.968;2022-08-19T01:03:12;21.50;85.70
28071;DHT22;15383;48.408;9.968;2022-08-19T01:05:39;21.50;85.60
28071;DHT22;15383;48.408;9.968;2022-08-19T01:08:08;21.50;85.60
28071;DHT22;15383;48.408;9.968;2022-08-19T01:10:40;21.50;85.70
28071;DHT22;15383;48.408;9.968;2022-08-19T01:13:07;21.50;85.70
28071;DHT22;15383;48.408;9.968;2022-08-19T01:15:38;21.50;85.80
28071;DHT22;15383;48.408;9.968;2022-08-19T01:18:08;21.50;85.70
28071;DHT22;15383;48.408;9.968;2022-08-19T01:20:35;21.40;85.60
28071;DHT22;15383;48.408;9.968;2022-08-19T01:23:01;21.50;85.70
28071;DHT22;15383;48.408;9.968;2022-08-19T01:25:38;21.40;85.70
28071;DHT22;15383;48.408;9.968;2022-08-19T01:28:04;21.40;85.70
28071;DHT22;15383;48.408;9.968;2022-08-19T01:30:34;21.40;85.60
28071;DHT22;15383;48.408;9.968;2022-08-19T01:33:02;21.40;85.70
28071;DHT22;15383;48.408;9.968;2022-08-19T01:35:31;21.40;85.70
28071;DHT22;15383;48.408;9.968;2022-08-19T01:38:03;21.40;85.70
28071;DHT22;15383;48.408;9.968;2022-08-19T01:40:35;21.40;85.70
28071;DHT22;15383;48.408;9.968;2022-08-19T01:43:02;21.40;85.70
28071;DHT22;15383;48.408;9.968;2022-08-19T01:45:30;21.40;85.70
28071;DHT22;15383;48.408;9.968;2022-08-19T01:47:56;21.40;85.70
28071;DHT22;15383;48.408;9.968;2022-08-19T01:50:22;21.40;85.70
28071;DHT22;15383;48.408;9.968;2022-08-19T01:52:48;21.40;85.70
28071;DHT22;15383;48.408;9.968;2022-08-19T01:55:16;21.40;85.80
28071;DHT22;15383;48.408;9.968;2022-08-19T01:57:45;21.40;86.50
28071;DHT22;15383;48.408;9.968;2022-08-19T02:00:15;21.40;85.80
28071;DHT22;15383;48.408;9.968;2022-08-19T02:02:42;21.40;85.70
28071;DHT22;15383;48.408;9.968;2022-08-19T02:05:08;21.40;85.80
28071;DHT22;15383;48.408;9.968;2022-08-19T02:07:35;21.40;85.80
28071;DHT22;15383;48.408;9.968;2022-08-19T02:10:07;21.40;85.80
28071;DHT22;15383;48.408;9.968;2022-08-19T02:22:45;21.40;85.80
28071;DHT22;15383;48.408;9.968;2022-08-19T02:25:13;21.40;85.80
28071;DHT22;15383;48.408;9.968;2022-08-19T02:27:40;21.40;85.80
28071;DHT22;15383;48.408;9.968;2022-08-19T02:30:07;21.40;85.80
28071;DHT22;15383;48.408;9.968;2022-08-19T02:32:33;21.40;85.90
28071;DHT22;15383;48.408;9.968;2022-08-19T02:34:59;21.30;85.80
28071;DHT22;15383;48.408;9.968;2022-08-19T02:37:25;21.30;85.80
28071;DHT22;15383;48.408;9.968;2022-08-19T02:40:09;21.30;85.80
28071;DHT22;15383;48.408;9.968;2022-08-19T02:42:35;21.30;85.80
28071;DHT22;15383;48.408;9.968;2022-08-19T02:45:00;21.30;85.90
28071;DHT22;15383;48.408;9.968;2022-08-19T02:47:26;21.30;85.90
28071;DHT22;15383;48.408;9.968;2022-08-19T02:49:52;21.30;85.80
28071;DHT22;15383;48.408;9.968;2022-08-19T02:52:17;21.30;85.80
28071;DHT22;15383;48.408;9.968;2022-08-19T02:54:43;21.30;85.80
28071;DHT22;15383;48.408;9.968;2022-08-19T02:57:09;21.30;85.90
28071;DHT22;15383;48.408;9.968;2022-08-19T02:59:35;21.30;85.80
28071;DHT22;15383;48.408;9.968;2022-08-19T03:02:01;21.30;86.70
28071;DHT22;15383;48.408;9.968;2022-08-19T03:04:26;21.30;85.90
28071;DHT22;15383;48.408;9.968;2022-08-19T03:06:52;21.30;85.90
28071;DHT22;15383;48.408;9.968;2022-08-19T03:09:19;21.30;85.90
28071;DHT22;15383;48.408;9.968;2022-08-19T03:11:45;21.30;85.90
28071;DHT22;15383;48.408;9.968;2022-08-19T03:14:12;21.30;85.90
28071;DHT22;15383;48.408;9.968;2022-08-19T03:16:56;21.30;86.00
28071;DHT22;15383;48.408;9.968;2022-08-19T03:19:22;21.30;85.90
28071;DHT22;15383;48.408;9.968;2022-08-19T03:21:49;21.30;85.90
28071;DHT22;15383;48.408;9.968;2022-08-19T03:24:15;21.30;85.90
28071;DHT22;15383;48.408;9.968;2022-08-19T03:26:47;21.30;86.10
28071;DHT22;15383;48.408;9.968;2022-08-19T03:29:14;21.20;85.90
28071;DHT22;15383;48.408;9.968;2022-08-19T03:31:42;21.20;85.90
28071;DHT22;15383;48.408;9.968;2022-08-19T03:34:14;21.20;85.90
28071;DHT22;15383;48.408;9.968;2022-08-19T03:36:40;21.30;86.00
28071;DHT22;15383;48.408;9.968;2022-08-19T03:39:06;21.30;86.00
28071;DHT22;15383;48.408;9.968;2022-08-19T03:41:38;21.20;86.00
28071;DHT22;15383;48.408;9.968;2022-08-19T03:44:04;21.20;86.00
28071;DHT22;15383;48.408;9.968;2022-08-19T03:46:32;21.20;86.10
28071;DHT22;15383;48.408;9.968;2022-08-19T03:49:00;21.20;86.10
28071;DHT22;15383;48.408;9.968;2022-08-19T03:51:38;21.20;86.10
28071;DHT22;15383;48.408;9.968;2022-08-19T03:54:07;21.20;86.00
28071;DHT22;15383;48.408;9.968;2022-08-19T03:56:35;21.20;86.00
28071;DHT22;15383;48.408;9.968;2022-08-19T03:59:02;21.20;86.00
28071;DHT22;15383;48.408;9.968;2022-08-19T04:01:29;21.20;86.00
28071;DHT22;15383;48.408;9.968;2022-08-19T04:03:58;21.20;86.00
28071;DHT22;15383;48.408;9.968;2022-08-19T04:06:35;21.20;86.00
28071;DHT22;15383;48.408;9.968;2022-08-19T04:09:05;21.20;86.00
28071;DHT22;15383;48.408;9.968;2022-08-19T04:11:36;21.20;86.00
28071;DHT22;15383;48.408;9.968;2022-08-19T04:14:07;21.20;86.10
28071;DHT22;15383;48.408;9.968;2022-08-19T04:16:33;21.20;86.00
28071;DHT22;15383;48.408;9.968;2022-08-19T04:19:00;21.20;86.10
28071;DHT22;15383;48.408;9.968;2022-08-19T04:21:27;21.20;86.10
28071;DHT22;15383;48.408;9.968;2022-08-19T04:23:54;21.20;86.10
28071;DHT22;15383;48.408;9.968;2022-08-19T04:26:28;21.20;86.10
28071;DHT22;15383;48.408;9.968;2022-08-19T04:32:19;21.20;86.10
28071;DHT22;15383;48.408;9.968;2022-08-19T04:34:45;21.20;86.10
28071;DHT22;15383;48.408;9.968;2022-08-19T04:37:10;21.20;86.10
28071;DHT22;15383;48.408;9.968;2022-08-19T04:39:37;21.20;86.10
28071;DHT22;15383;48.408;9.968;2022-08-19T04:42:21;21.20;86.20
28071;DHT22;15383;48.408;9.968;2022-08-19T04:45:07;21.20;86.20
28071;DHT22;15383;48.408;9.968;2022-08-19T04:47:39;21.20;86.10
28071;DHT22;15383;48.408;9.968;2022-08-19T04:50:06;21.20;86.20
28071;DHT22;15383;48.408;9.968;2022-08-19T04:52:33;21.20;86.20
28071;DHT22;15383;48.408;9.968;2022-08-19T04:54:58;21.20;86.30
28071;DHT22;15383;48.408;9.968;2022-08-19T04:57:25;21.10;86.20
28071;DHT22;15383;48.408;9.968;2022-08-19T04:59:55;21.20;86.30
28071;DHT22;15383;48.408;9.968;2022-08-19T05:02:20;21.10;86.20
28071;DHT22;15383;48.408;9.968;2022-08-19T05:04:50;21.10;86.20
28071;DHT22;15383;48.408;9.968;2022-08-19T05:07:16;21.20;86.30
28071;DHT22;15383;48.408;9.968;2022-08-19T05:09:41;21.10;86.30
28071;DHT22;15383;48.408;9.968;2022-08-19T05:12:08;21.10;86.30
28071;DHT22;15383;48.408;9.968;2022-08-19T05:14:33;21.10;86.30
28071;DHT22;15383;48.408;9.968;2022-08-19T05:17:01;21.20;86.40
28071;DHT22;15383;48.408;9.968;2022-08-19T05:19:27;21.20;86.40
28071;DHT22;15383;48.408;9.968;2022-08-19T05:22:11;21.10;86.40
28071;DHT22;15383;48.408;9.968;2022-08-19T05:24:55;21.20;86.50
28071;DHT22;15383;48.408;9.968;2022-08-19T05:27:21;21.10;86.40
28071;DHT22;15383;48.408;9.968;2022-08-19T05:29:46;21.20;86.50
28071;DHT22;15383;48.408;9.968;2022-08-19T05:32:12;21.10;86.40
28071;DHT22;15383;48.408;9.968;2022-08-19T05:34:38;21.10;86.40
28071;DHT22;15383;48.408;9.968;2022-08-19T05:37:04;21.10;86.40
28071;DHT22;15383;48.408;9.968;2022-08-19T05:39:34;21.20;86.50
28071;DHT22;15383;48.408;9.968;2022-08-19T05:42:05;21.20;86.50
28071;DHT22;15383;48.408;9.968;2022-08-19T05:44:34;21.20;86.50
28071;DHT22;15383;48.408;9.968;2022-08-19T05:47:02;21.20;86.50
28071;DHT22;15383;48.408;9.968;2022-08-19T05:49:28;21.20;86.50
28071;DHT22;15383;48.408;9.968;2022-08-19T05:51:55;21.10;86.60
28071;DHT22;15383;48.408;9.968;2022-08-19T05:54:22;21.10;86.50
28071;DHT22;15383;48.408;9.968;2022-08-19T05:56:49;21.10;86.50
28071;DHT22;15383;48.408;9.968;2022-08-19T05:59:16;21.10;86.60
28071;DHT22;15383;48.408;9.968;2022-08-19T06:01:45;21.10;86.50
28071;DHT22;15383;48.408;9.968;2022-08-19T06:04:12;21.20;86.60
28071;DHT22;15383;48.408;9.968;2022-08-19T06:06:40;21.20;86.50
28071;DHT22;15383;48.408;9.968;2022-08-19T06:09:07;21.10;86.50
28071;DHT22;15383;48.408;9.968;2022-08-19T06:11:40;21.20;86.50
28071;DHT22;15383;48.408;9.968;2022-08-19T06:14:09;21.10;86.50
28071;DHT22;15383;48.408;9.968;2022-08-19T06:16:36;21.10;86.50
28071;DHT22;15383;48.408;9.968;2022-08-19T06:19:06;21.10;86.60
28071;DHT22;15383;48.408;9.968;2022-08-19T06:21:33;21.10;86.60
28071;DHT22;15383;48.408;9.968;2022-08-19T06:23:59;21.10;86.60
28071;DHT22;15383;48.408;9.968;2022-08-19T06:26:25;21.10;86.60
28071;DHT22;15383;48.408;9.968;2022-08-19T06:28:52;21.10;86.60
28071;DHT22;15383;48.408;9.968;2022-08-19T06:31:20;21.10;86.60
28071;DHT22;15383;48.408;9.968;2022-08-19T06:33:47;21.10;86.60
28071;DHT22;15383;48.408;9.968;2022-08-19T06:36:21;21.10;86.60
28071;DHT22;15383;48.408;9.968;2022-08-19T06:38:47;21.10;86.60
28071;DHT22;15383;48.408;9.968;2022-08-19T06:41:12;21.20;86.70
28071;DHT22;15383;48.408;9.968;2022-08-19T06:43:46;21.10;86.60
28071;DHT22;15383;48.408;9.968;2022-08-19T06:46:27;21.10;86.60
28071;DHT22;15383;48.408;9.968;2022-08-19T06:49:02;21.10;86.70
28071;DHT22;15383;48.408;9.968;2022-08-19T06:51:28;21.20;86.80
28071;DHT22;15383;48.408;9.968;2022-08-19T06:53:55;21.20;86.80
28071;DHT22;15383;48.408;9.968;2022-08-19T06:56:26;21.10;86.70
28071;DHT22;15383;48.408;9.968;2022-08-19T07:32:48;21.10;86.80
28071;DHT22;15383;48.408;9.968;2022-08-19T07:35:18;21.10;86.90
28071;DHT22;15383;48.408;9.968;2022-08-19T07:37:45;21.10;86.70
28071;DHT22;15383;48.408;9.968;2022-08-19T07:43:40;21.10;86.80
28071;DHT22;15383;48.408;9.968;2022-08-19T07:46:08;21.10;86.80
28071;DHT22;15383;48.408;9.968;2022-08-19T07:48:37;21.10;86.80
28071;DHT22;15383;48.408;9.968;2022-08-19T07:51:08;21.10;86.90
28071;DHT22;15383;48.408;9.968;2022-08-19T07:53:36;21.10;86.80
28071;DHT22;15383;48.408;9.968;2022-08-19T07:56:03;21.10;86.90
28071;DHT22;15383;48.408;9.968;2022-08-19T07:58:35;21.10;86.90
28071;DHT22;15383;48.408;9.968;2022-08-19T08:01:03;21.10;86.90
28071;DHT22;15383;48.408;9.968;2022-08-19T08:03:32;21.10;86.80
28071;DHT22;15383;48.408;9.968;2022-08-19T08:06:17;21.10;87.00
28071;DHT22;15383;48.408;9.968;2022-08-19T08:09:03;21.10;87.10
28071;DHT22;15383;48.408;9.968;2022-08-19T08:11:45;21.10;87.10
28071;DHT22;15383;48.408;9.968;2022-08-19T08:14:21;21.10;87.10
28071;DHT22;15383;48.408;9.968;2022-08-19T08:16:50;21.10;87.20
28071;DHT22;15383;48.408;9.968;2022-08-19T08:19:18;21.00;87.30
28071;DHT22;15383;48.408;9.968;2022-08-19T08:21:44;21.10;87.50
28071;DHT22;15383;48.408;9.968;2022-08-19T08:24:10;21.00;87.60
28071;DHT22;15383;48.408;9.968;2022-08-19T08:26:36;21.00;88.00
28071;DHT22;15383;48.408;9.968;2022-08-19T08:29:03;21.00;88.80
28071;DHT22;15383;48.408;9.968;2022-08-19T08:31:32;21.00;89.00
28071;DHT22;15383;48.408;9.968;2022-08-19T08:33:59;21.00;89.00
28071;DHT22;15383;48.408;9.968;2022-08-19T08:36:25;21.00;89.10
28071;DHT22;15383;48.408;9.968;2022-08-19T08:38:51;21.00;89.30
28071;DHT22;15383;48.408;9.968;2022-08-19T08:41:29;21.00;89.70
28071;DHT22;15383;48.408;9.968;2022-08-19T08:43:57;21.00;89.90
28071;DHT22;15383;48.408;9.968;2022-08-19T08:46:44;21.00;89.90
28071;DHT22;15383;48.408;9.968;2022-08-19T08:52:49;21.00;89.90
28071;DHT22;15383;48.408;9.968;2022-08-19T08:54:55;21.00;90.00
28071;DHT22;15383;48.408;9.968;2022-08-19T09:00:15;21.00;90.00
28071;DHT22;15383;48.408;9.968;2022-08-19T09:02:44;21.00;90.10
28071;DHT22;15383;48.408;9.968;2022-08-19T09:05:10;21.00;90.20
28071;DHT22;15383;48.408;9.968;2022-08-19T09:07:56;21.00;90.30
28071;DHT22;15383;48.408;9.968;2022-08-19T09:10:46;20.90;90.40
28071;DHT22;15383;48.408;9.968;2022-08-19T09:16:22;21.00;90.30
28071;DHT22;15383;48.408;9.968;2022-08-19T09:18:57;21.00;90.30
28071;DHT22;15383;48.408;9.968;2022-08-19T09:21:25;20.90;90.40
28071;DHT22;15383;48.408;9.968;2022-08-19T09:23:52;20.90;90.50
28071;DHT22;15383;48.408;9.968;2022-08-19T09:26:20;20.90;90.50
28071;DHT22;15383;48.408;9.968;2022-08-19T09:28:48;20.90;90.50
28071;DHT22;15383;48.408;9.968;2022-08-19T09:31:17;20.90;90.50
28071;DHT22;15383;48.408;9.968;2022-08-19T09:33:43;20.90;90.30
28071;DHT22;15383;48.408;9.968;2022-08-19T09:36:12;20.90;90.50
28071;DHT22;15383;48.408;9.968;2022-08-19T09:38:39;20.90;90.50
28071;DHT22;15383;48.408;9.968;2022-08-19T09:41:10;20.90;90.70
28071;DHT22;15383;48.408;9.968;2022-08-19T09:43:37;20.90;90.80
28071;DHT22;15383;48.408;9.968;2022-08-19T09:46:04;20.90;90.80
28071;DHT22;15383;48.408;9.968;2022-08-19T09:48:32;20.90;90.70
28071;DHT22;15383;48.408;9.968;2022-08-19T09:51:15;20.90;90.80
28071;DHT22;15383;48.408;9.968;2022-08-19T09:53:42;20.90;90.70
28071;DHT22;15383;48.408;9.968;2022-08-19T09:56:09;20.90;90.70
28071;DHT22;15383;48.408;9.968;2022-08-19T09:58:35;20.90;90.90
28071;DHT22;15383;48.408;9.968;2022-08-19T10:01:02;20.90;91.00
28071;DHT22;15383;48.408;9.968;2022-08-19T10:03:29;20.90;90.90
28071;DHT22;15383;48.408;9.968;2022-08-19T10:05:56;20.90;90.90
28071;DHT22;15383;48.408;9.968;2022-08-19T10:08:26;20.90;90.90
28071;DHT22;15383;48.408;9.968;2022-08-19T10:10:52;20.90;90.80
28071;DHT22;15383;48.408;9.968;2022-08-19T10:13:20;20.90;90.80
28071;DHT22;15383;48.408;9.968;2022-08-19T10:15:51;20.90;90.80
28071;DHT22;15383;48.408;9.968;2022-08-19T10:18:19;20.90;90.90
28071;DHT22;15383;48.408;9.968;2022-08-19T10:20:46;20.90;90.80
28071;DHT22;15383;48.408;9.968;2022-08-19T10:23:12;20.90;91.00
28071;DHT22;15383;48.408;9.968;2022-08-19T10:25:38;20.90;91.10
28071;DHT22;15383;48.408;9.968;2022-08-19T10:28:04;20.90;91.10
28071;DHT22;15383;48.408;9.968;2022-08-19T10:30:31;20.90;91.50
28071;DHT22;15383;48.408;9.968;2022-08-19T10:32:57;20.90;91.10
28071;DHT22;15383;48.408;9.968;2022-08-19T10:35:23;20.90;91.20
28071;DHT22;15383;48.408;9.968;2022-08-19T10:37:50;20.90;91.30
28071;DHT22;15383;48.408;9.968;2022-08-19T10:40:15;20.90;91.30
28071;DHT22;15383;48.408;9.968;2022-08-19T10:42:41;20.90;91.30
28071;DHT22;15383;48.408;9.968;2022-08-19T10:45:07;20.90;91.20
28071;DHT22;15383;48.408;9.968;2022-08-19T10:47:35;20.90;91.10
28071;DHT22;15383;48.408;9.968;2022-08-19T10:50:00;20.90;90.90
28071;DHT22;15383;48.408;9.968;2022-08-19T10:52:49;20.90;90.80
28071;DHT22;15383;48.408;9.968;2022-08-19T10:55:14;20.90;90.70
28071;DHT22;15383;48.408;9.968;2022-08-19T10:57:59;20.90;90.70
28071;DHT22;15383;48.408;9.968;2022-08-19T11:00:25;20.90;90.70
28071;DHT22;15383;48.408;9.968;2022-08-19T11:02:51;21.00;90.70
28071;DHT22;15383;48.408;9.968;2022-08-19T11:05:17;20.90;90.70
28071;DHT22;15383;48.408;9.968;2022-08-19T11:07:44;20.90;90.70
28071;DHT22;15383;48.408;9.968;2022-08-19T11:10:13;20.90;90.70
28071;DHT22;15383;48.408;9.968;2022-08-19T11:12:40;20.90;90.70
28071;DHT22;15383;48.408;9.968;2022-08-19T11:15:07;21.00;90.70
28071;DHT22;15383;48.408;9.968;2022-08-19T11:17:40;20.90;90.70
28071;DHT22;15383;48.408;9.968;2022-08-19T11:20:07;20.90;90.70
28071;DHT22;15383;48.408;9.968;2022-08-19T11:22:34;20.90;90.70
28071;DHT22;15383;48.408;9.968;2022-08-19T11:25:00;20.90;90.70
28071;DHT22;15383;48.408;9.968;2022-08-19T11:27:25;20.90;90.70
28071;DHT22;15383;48.408;9.968;2022-08-19T11:29:51;20.90;90.70
28071;DHT22;15383;48.408;9.968;2022-08-19T11:32:18;20.90;90.70
28071;DHT22;15383;48.408;9.968;2022-08-19T11:34:43;20.90;90.80
28071;DHT22;15383;48.408;9.968;2022-08-19T11:37:09;20.90;90.80
28071;DHT22;15383;48.408;9.968;2022-08-19T11:39:36;20.90;90.80
28071;DHT22;15383;48.408;9.968;2022-08-19T11:42:03;21.00;90.80
28071;DHT22;15383;48.408;9.968;2022-08-19T11:44:50;20.90;90.80
28071;DHT22;15383;48.408;9.968;2022-08-19T11:47:16;20.90;90.80
28071;DHT22;15383;48.408;9.968;2022-08-19T11:49:42;20.90;90.80
28071;DHT22;15383;48.408;9.968;2022-08-19T11:52:08;20.90;90.80
28071;DHT22;15383;48.408;9.968;2022-08-19T11:54:34;21.00;90.90
28071;DHT22;15383;48.408;9.968;2022-08-19T11:57:02;20.90;90.90
28071;DHT22;15383;48.408;9.968;2022-08-19T11:59:27;20.90;90.90
28071;DHT22;15383;48.408;9.968;2022-08-19T12:01:54;20.90;90.90
28071;DHT22;15383;48.408;9.968;2022-08-19T12:04:21;21.00;91.00
28071;DHT22;15383;48.408;9.968;2022-08-19T12:06:47;21.00;91.00
28071;DHT22;15383;48.408;9.968;2022-08-19T12:09:12;20.90;91.00
28071;DHT22;15383;48.408;9.968;2022-08-19T12:11:40;21.00;91.40
28071;DHT22;15383;48.408;9.968;2022-08-19T12:14:09;20.90;91.00
28071;DHT22;15383;48.408;9.968;2022-08-19T12:16:35;20.90;91.10
28071;DHT22;15383;48.408;9.968;2022-08-19T12:19:01;20.90;91.10
28071;DHT22;15383;48.408;9.968;2022-08-19T12:21:30;20.90;91.10
28071;DHT22;15383;48.408;9.968;2022-08-19T12:23:57;20.90;91.10
28071;DHT22;15383;48.408;9.968;2022-08-19T12:26:25;20.90;91.20
28071;DHT22;15383;48.408;9.968;2022-08-19T12:28:51;20.90;91.20
28071;DHT22;15383;48.408;9.968;2022-08-19T12:31:17;20.90;91.20
28071;DHT22;15383;48.408;9.968;2022-08-19T12:33:45;21.00;91.40
28071;DHT22;15383;48.408;9.968;2022-08-19T12:36:12;20.90;91.20
28071;DHT22;15383;48.408;9.968;2022-08-19T12:38:38;20.90;91.20
28071;DHT22;15383;48.408;9.968;2022-08-19T12:41:05;20.90;91.30
28071;DHT22;15383;48.408;9.968;2022-08-19T12:43:34;21.00;91.30
28071;DHT22;15383;48.408;9.968;2022-08-19T12:46:01;20.90;91.30
28071;DHT22;15383;48.408;9.968;2022-08-19T12:48:26;20.90;91.30
28071;DHT22;15383;48.408;9.968;2022-08-19T12:50:52;20.90;91.30
28071;DHT22;15383;48.408;9.968;2022-08-19T12:53:19;21.00;91.40
28071;DHT22;15383;48.408;9.968;2022-08-19T12:55:45;21.00;91.40
28071;DHT22;15383;48.408;9.968;2022-08-19T12:58:10;21.00;91.40
28071;DHT22;15383;48.408;9.968;2022-08-19T13:00:38;21.00;91.40
28071;DHT22;15383;48.408;9.968;2022-08-19T13:03:03;21.00;91.40
28071;DHT22;15383;48.408;9.968;2022-08-19T13:05:31;21.00;91.50
28071;DHT22;15383;48.408;9.968;2022-08-19T13:07:58;21.00;91.50
28071;DHT22;15383;48.408;9.968;2022-08-19T13:10:28;21.00;91.40
28071;DHT22;15383;48.408;9.968;2022-08-19T13:12:55;21.00;91.40
28071;DHT22;15383;48.408;9.968;2022-08-19T13:15:22;21.00;91.50
28071;DHT22;15383;48.408;9.968;2022-08-19T13:17:49;21.00;91.50
28071;DHT22;15383;48.408;9.968;2022-08-19T13:20:17;21.00;91.50
28071;DHT22;15383;48.408;9.968;2022-08-19T13:22:45;20.90;91.60
28071;DHT22;15383;48.408;9.968;2022-08-19T13:25:12;20.90;91.70
28071;DHT22;15383;48.408;9.968;2022-08-19T13:27:38;20.90;91.80
28071;DHT22;15383;48.408;9.968;2022-08-19T13:30:06;20.90;91.90
28071;DHT22;15383;48.408;9.968;2022-08-19T13:32:51;20.90;91.90
28071;DHT22;15383;48.408;9.968;2022-08-19T13:35:35;21.00;92.00
28071;DHT22;15383;48.408;9.968;2022-08-19T13:38:01;20.90;92.10
28071;DHT22;15383;48.408;9.968;2022-08-19T13:40:30;20.90;92.40
28071;DHT22;15383;48.408;9.968;2022-08-19T13:43:00;20.90;92.50
28071;DHT22;15383;48.408;9.968;2022-08-19T13:45:27;20.90;92.30
28071;DHT22;15383;48.408;9.968;2022-08-19T13:47:56;20.90;92.50
28071;DHT22;15383;48.408;9.968;2022-08-19T13:50:24;20.90;92.40
28071;DHT22;15383;48.408;9.968;2022-08-19T13:52:54;20.90;92.40
28071;DHT22;15383;48.408;9.968;2022-08-19T13:55:21;20.90;92.40
28071;DHT22;15383;48.408;9.968;2022-08-19T13:57:54;20.90;92.50
28071;DHT22;15383;48.408;9.968;2022-08-19T14:00:23;20.90;92.60
28071;DHT22;15383;48.408;9.968;2022-08-19T14:03:11;20.80;92.60
28071;DHT22;15383;48.408;9.968;2022-08-19T14:05:37;20.80;92.70
28071;DHT22;15383;48.408;9.968;2022-08-19T14:08:03;20.80;92.80
28071;DHT22;15383;48.408;9.968;2022-08-19T14:13:54;20.80;92.80
28071;DHT22;15383;48.408;9.968;2022-08-19T14:16:20;20.90;92.80
28071;DHT22;15383;48.408;9.968;2022-08-19T14:18:46;20.80;92.90
28071;DHT22;15383;48.408;9.968;2022-08-19T14:21:19;20.80;92.90
28071;DHT22;15383;48.408;9.968;2022-08-19T14:23:46;20.80;92.90
28071;DHT22;15383;48.408;9.968;2022-08-19T14:26:14;20.80;93.00
28071;DHT22;15383;48.408;9.968;2022-08-19T14:28:41;20.80;93.00
28071;DHT22;15383;48.408;9.968;2022-08-19T14:31:08;20.80;93.10
28071;DHT22;15383;48.408;9.968;2022-08-19T14:33:34;20.80;93.10
28071;DHT22;15383;48.408;9.968;2022-08-19T14:36:00;20.80;93.10
28071;DHT22;15383;48.408;9.968;2022-08-19T14:38:26;20.80;93.10
28071;DHT22;15383;48.408;9.968;2022-08-19T14:40:52;20.80;93.20
28071;DHT22;15383;48.408;9.968;2022-08-19T14:43:18;20.80;93.30
28071;DHT22;15383;48.408;9.968;2022-08-19T14:45:44;20.80;93.30
28071;DHT22;15383;48.408;9.968;2022-08-19T14:48:10;20.80;93.30
28071;DHT22;15383;48.408;9.968;2022-08-19T14:50:36;20.80;93.30
28071;DHT22;15383;48.408;9.968;2022-08-19T14:53:07;20.80;93.20
28071;DHT22;15383;48.408;9.968;2022-08-19T14:55:33;20.80;93.20
28071;DHT22;15383;48.408;9.968;2022-08-19T14:58:00;20.80;93.30
28071;DHT22;15383;48.408;9.968;2022-08-19T15:00:26;20.80;93.50
28071;DHT22;15383;48.408;9.968;2022-08-19T15:02:53;20.70;93.40
28071;DHT22;15383;48.408;9.968;2022-08-19T15:05:20;20.80;93.40
28071;DHT22;15383;48.408;9.968;2022-08-19T15:07:46;20.80;93.40
28071;DHT22;15383;48.408;9.968;2022-08-19T15:10:13;20.80;93.40
28071;DHT22;15383;48.408;9.968;2022-08-19T15:12:40;20.70;93.60
28071;DHT22;15383;48.408;9.968;2022-08-19T15:15:07;20.70;93.50
28071;DHT22;15383;48.408;9.968;2022-08-19T15:17:33;20.70;93.50
28071;DHT22;15383;48.408;9.968;2022-08-19T15:23:24;20.70;93.40
28071;DHT22;15383;48.408;9.968;2022-08-19T15:25:50;20.80;93.50
28071;DHT22;15383;48.408;9.968;2022-08-19T15:28:24;20.80;93.50
28071;DHT22;15383;48.408;9.968;2022-08-19T15:30:50;20.70;93.40
28071;DHT22;15383;48.408;9.968;2022-08-19T15:33:19;20.70;93.90
28071;DHT22;15383;48.408;9.968;2022-08-19T15:35:46;20.70;93.60
28071;DHT22;15383;48.408;9.968;2022-08-19T15:38:12;20.80;93.70
28071;DHT22;15383;48.408;9.968;2022-08-19T15:40:39;20.70;93.90
28071;DHT22;15383;48.408;9.968;2022-08-19T15:43:06;20.70;93.70
28071;DHT22;15383;48.408;9.968;2022-08-19T15:45:31;20.80;93.70
28071;DHT22;15383;48.408;9.968;2022-08-19T15:47:58;20.70;93.80
28071;DHT22;15383;48.408;9.968;2022-08-19T15:50:24;20.70;93.70
28071;DHT22;15383;48.408;9.968;2022-08-19T15:52:53;20.80;93.70
28071;DHT22;15383;48.408;9.968;2022-08-19T15:55:22;20.70;93.60
28071;DHT22;15383;48.408;9.968;2022-08-19T15:57:48;20.70;93.90
28071;DHT22;15383;48.408;9.968;2022-08-19T16:00:32;20.70;94.20
28071;DHT22;15383;48.408;9.968;2022-08-19T16:03:16;20.70;93.80
28071;DHT22;15383;48.408;9.968;2022-08-19T16:06:01;20.70;93.80
28071;DHT22;15383;48.408;9.968;2022-08-19T16:08:45;20.70;93.80
28071;DHT22;15383;48.408;9.968;2022-08-19T16:11:16;20.70;93.90
28071;DHT22;15383;48.408;9.968;2022-08-19T16:13:46;20.70;93.90
28071;DHT22;15383;48.408;9.968;2022-08-19T16:16:14;20.70;93.80
28071;DHT22;15383;48.408;9.968;2022-08-19T16:18:39;20.70;94.00
28071;DHT22;15383;48.408;9.968;2022-08-19T16:21:05;20.70;94.00
28071;DHT22;15383;48.408;9.968;2022-08-19T16:23:33;20.70;94.10
28071;DHT22;15383;48.408;9.968;2022-08-19T16:25:59;20.70;94.00
28071;DHT22;15383;48.408;9.968;2022-08-19T16:28:24;20.70;94.10
28071;DHT22;15383;48.408;9.968;2022-08-19T16:30:51;20.70;94.00
28071;DHT22;15383;48.408;9.968;2022-08-19T16:33:17;20.70;94.00
28071;DHT22;15383;48.408;9.968;2022-08-19T16:35:42;20.70;94.00
28071;DHT22;15383;48.408;9.968;2022-08-19T16:38:08;20.70;94.10
28071;DHT22;15383;48.408;9.968;2022-08-19T16:40:34;20.70;94.00
28071;DHT22;15383;48.408;9.968;2022-08-19T16:43:00;20.70;94.10
28071;DHT22;15383;48.408;9.968;2022-08-19T16:45:27;20.70;94.00